« Back
NWS Peachtree City, Ga » Text Product » ATL Terminal Aerodrome Forecast


Printer-friendly Version
Current Version              Previous Versions:   1  2  3  4  5  6  7  8  9  

Terminal Aerodrome Forecast

593
FTUS42 KFFC 301540 AAB
TAFATL
TAF AMD
KATL 301540Z 3016/0118 24012G18KT P6SM VCSH BKN050
      TEMPO 3016/3020 VRB15G25KT 4SM TSRA BKN035CB
     FM010000 27008KT P6SM BKN060
     FM010600 26006KT P6SM SCT015 SCT060
     FM011400 28008KT P6SM SCT060=

USA.gov is the U.S. government's official web portal to all federal, state and local government web resources and services.